createdAt,value
2022-10-14T00:01:06.900Z,32.58
2022-10-14T00:03:35.166Z,23.77
2022-10-14T00:06:12.360Z,22.27
2022-10-14T00:08:40.246Z,26.95
2022-10-14T00:11:09.292Z,29.98
2022-10-14T00:13:36.489Z,30.15
2022-10-14T00:16:04.551Z,27.60
2022-10-14T00:18:31.965Z,35.15
2022-10-14T00:21:01.655Z,38.75
2022-10-14T00:23:29.099Z,39.83
2022-10-14T00:25:55.992Z,37.95
2022-10-14T00:28:22.889Z,37.85
2022-10-14T00:31:01.016Z,36.40
2022-10-14T00:33:28.953Z,32.70
2022-10-14T00:35:59.680Z,34.65
2022-10-14T00:38:27.094Z,40.35
2022-10-14T00:40:55.058Z,42.00
2022-10-14T00:43:24.053Z,40.40
2022-10-14T00:45:50.947Z,42.15
2022-10-14T00:48:20.939Z,37.60
2022-10-14T00:50:50.754Z,22.95
2022-10-14T00:53:18.620Z,38.03
2022-10-14T00:55:46.303Z,42.50
2022-10-14T00:58:13.127Z,43.70
2022-10-14T01:00:40.237Z,44.50
2022-10-14T01:03:18.538Z,42.85
2022-10-14T01:06:00.057Z,46.17
2022-10-14T01:08:47.042Z,45.30
2022-10-14T01:11:24.282Z,44.60
2022-10-14T01:13:58.856Z,44.65
2022-10-14T01:16:57.956Z,41.97
2022-10-14T01:19:51.005Z,27.70
2022-10-14T01:22:50.725Z,40.08
2022-10-14T01:25:31.143Z,41.70
2022-10-14T01:28:13.100Z,39.92
2022-10-14T01:30:56.648Z,43.13
2022-10-14T01:33:26.577Z,40.67
2022-10-14T01:36:02.147Z,42.38
2022-10-14T01:38:43.176Z,42.50
2022-10-14T01:41:21.863Z,39.83
2022-10-14T01:43:51.917Z,44.75
2022-10-14T01:46:21.451Z,41.30
2022-10-14T01:51:30.018Z,37.47
2022-10-14T01:54:05.442Z,33.08
2022-10-14T01:56:38.142Z,35.30
2022-10-14T01:59:09.191Z,36.53
2022-10-14T02:01:36.795Z,36.95
2022-10-14T02:04:13.497Z,37.05
2022-10-14T02:06:43.906Z,38.90
2022-10-14T02:09:10.724Z,38.28
2022-10-14T02:11:45.770Z,37.20
2022-10-14T02:14:48.160Z,45.50
2022-10-14T02:17:28.496Z,42.55
2022-10-14T02:22:39.619Z,45.28
2022-10-14T02:25:35.937Z,47.50
2022-10-14T02:28:07.251Z,41.70
2022-10-14T02:30:41.636Z,49.60
2022-10-14T02:33:09.485Z,48.63
2022-10-14T02:35:38.729Z,49.38
2022-10-14T02:38:06.942Z,46.97
2022-10-14T02:40:38.052Z,54.65
2022-10-14T02:43:08.002Z,43.25
2022-10-14T02:45:35.165Z,47.90
2022-10-14T02:48:02.147Z,54.10
2022-10-14T02:50:29.053Z,45.95
2022-10-14T02:52:55.879Z,46.03
2022-10-14T02:55:22.899Z,38.60
2022-10-14T02:57:49.720Z,56.00
2022-10-14T03:00:17.504Z,44.33
2022-10-14T03:02:44.337Z,34.55
2022-10-14T03:05:11.686Z,39.65
2022-10-14T03:07:38.598Z,24.15
2022-10-14T03:10:05.836Z,56.70
2022-10-14T03:12:32.904Z,45.70
2022-10-14T03:14:59.760Z,52.90
2022-10-14T03:17:26.861Z,42.85
2022-10-14T03:19:53.617Z,49.03
2022-10-14T03:22:20.757Z,47.63
2022-10-14T03:24:47.776Z,37.33
2022-10-14T03:27:14.575Z,32.95
2022-10-14T03:29:41.428Z,39.80
2022-10-14T03:32:08.309Z,33.47
2022-10-14T03:34:35.146Z,34.63
2022-10-14T03:37:01.983Z,29.27
2022-10-14T03:39:28.909Z,33.45
2022-10-14T03:41:55.976Z,21.63
2022-10-14T03:44:23.056Z,37.75
2022-10-14T03:46:49.905Z,22.60
2022-10-14T03:49:16.751Z,29.67
2022-10-14T03:51:43.664Z,16.50
2022-10-14T03:54:10.628Z,29.95
2022-10-14T03:56:37.435Z,21.35
2022-10-14T03:59:04.413Z,29.40
2022-10-14T04:01:31.289Z,28.83
2022-10-14T04:03:58.154Z,28.42
2022-10-14T04:06:25.130Z,22.88
2022-10-14T04:08:51.956Z,20.52
2022-10-14T04:11:18.967Z,25.77
2022-10-14T04:13:45.824Z,21.80
2022-10-14T04:16:12.685Z,20.65
2022-10-14T04:18:40.012Z,25.35
2022-10-14T04:21:10.484Z,24.70
2022-10-14T04:23:37.963Z,23.63
2022-10-14T04:26:06.753Z,23.55
2022-10-14T04:28:34.573Z,23.08
2022-10-14T04:31:06.664Z,19.10
2022-10-14T04:33:35.101Z,14.07
2022-10-14T04:36:05.232Z,17.27
2022-10-14T04:38:32.790Z,22.55
2022-10-14T04:40:59.893Z,14.07
2022-10-14T04:43:26.743Z,13.43
2022-10-14T04:45:54.483Z,13.80
2022-10-14T04:48:21.589Z,18.23
2022-10-14T04:50:51.960Z,18.73
2022-10-14T04:53:22.171Z,17.67
2022-10-14T04:55:49.814Z,20.05
2022-10-14T04:58:17.488Z,19.90
2022-10-14T05:00:44.328Z,18.52
2022-10-14T05:03:11.337Z,20.00
2022-10-14T05:05:38.178Z,16.70
2022-10-14T05:08:05.508Z,21.25
2022-10-14T05:10:32.972Z,14.60
2022-10-14T05:12:59.944Z,17.13
2022-10-14T05:15:26.902Z,18.80
2022-10-14T05:17:53.751Z,14.52
2022-10-14T05:20:20.746Z,20.27
2022-10-14T05:22:47.594Z,14.98
2022-10-14T05:25:14.613Z,12.02
2022-10-14T05:27:41.480Z,13.32
2022-10-14T05:30:08.955Z,13.38
2022-10-14T05:32:36.047Z,18.05
2022-10-14T05:35:03.142Z,13.85
2022-10-14T05:37:30.140Z,18.50
2022-10-14T05:39:57.007Z,13.88
2022-10-14T05:42:24.012Z,15.55
2022-10-14T05:44:51.146Z,14.23
2022-10-14T05:47:18.029Z,16.98
2022-10-14T05:49:45.011Z,16.77
2022-10-14T05:52:12.427Z,15.23
2022-10-14T05:54:39.406Z,14.77
2022-10-14T05:57:06.477Z,14.48
2022-10-14T05:59:34.769Z,14.32
2022-10-14T06:02:02.838Z,13.75
2022-10-14T06:04:29.641Z,14.30
2022-10-14T06:06:56.508Z,13.52
2022-10-14T06:09:23.413Z,15.52
2022-10-14T06:11:50.292Z,13.82
2022-10-14T06:14:17.103Z,13.02
2022-10-14T06:16:43.961Z,13.70
2022-10-14T06:19:10.869Z,18.10
2022-10-14T06:21:37.867Z,13.80
2022-10-14T06:24:04.941Z,15.27
2022-10-14T06:26:31.875Z,17.33
2022-10-14T06:28:58.818Z,14.05
2022-10-14T06:31:28.653Z,13.85
2022-10-14T06:33:59.116Z,17.00
2022-10-14T06:36:26.120Z,12.68
2022-10-14T06:38:52.927Z,13.15
2022-10-14T06:41:19.779Z,17.65
2022-10-14T06:43:46.615Z,19.35
2022-10-14T06:46:13.413Z,14.40
2022-10-14T06:48:40.224Z,16.17
2022-10-14T06:51:07.047Z,13.85
2022-10-14T06:53:33.891Z,13.73
2022-10-14T06:56:06.062Z,13.63
2022-10-14T06:58:33.523Z,18.73
2022-10-14T07:01:05.846Z,15.02
2022-10-14T07:03:36.692Z,18.17
2022-10-14T07:06:05.085Z,16.00
2022-10-14T07:08:32.285Z,13.68
2022-10-14T07:10:59.289Z,16.38
2022-10-14T07:13:26.556Z,16.90
2022-10-14T07:15:53.462Z,14.63
2022-10-14T07:18:20.549Z,15.07
2022-10-14T07:20:47.431Z,12.30
2022-10-14T07:23:14.889Z,14.20
2022-10-14T07:25:41.874Z,14.27
2022-10-14T07:28:08.823Z,18.98
2022-10-14T07:30:35.796Z,16.65
2022-10-14T07:33:02.796Z,12.50
2022-10-14T07:35:29.682Z,11.77
2022-10-14T07:37:59.346Z,14.32
2022-10-14T07:40:26.619Z,17.42
2022-10-14T07:42:53.522Z,19.27
2022-10-14T07:45:21.306Z,22.13
2022-10-14T07:47:49.969Z,12.38
2022-10-14T07:50:17.371Z,20.65
2022-10-14T07:52:44.460Z,13.63
2022-10-14T07:55:11.595Z,17.58
2022-10-14T07:57:38.433Z,13.48
2022-10-14T08:00:06.022Z,15.50
2022-10-14T08:02:32.846Z,22.05
2022-10-14T08:05:18.945Z,19.33
2022-10-14T08:07:46.512Z,14.18
2022-10-14T08:10:13.358Z,23.55
2022-10-14T08:12:40.861Z,19.30
2022-10-14T08:15:08.003Z,18.50
2022-10-14T08:17:34.829Z,22.52
2022-10-14T08:20:01.725Z,18.23
2022-10-14T08:22:28.612Z,24.15
2022-10-14T08:24:55.464Z,24.50
2022-10-14T08:27:22.448Z,27.48
2022-10-14T08:29:49.331Z,18.52
2022-10-14T08:32:16.225Z,26.13
2022-10-14T08:34:43.072Z,21.52
2022-10-14T08:37:12.947Z,22.63
2022-10-14T08:39:39.784Z,21.33
2022-10-14T08:42:25.410Z,25.55
2022-10-14T08:44:56.929Z,25.30
2022-10-14T08:47:36.885Z,18.65
2022-10-14T08:50:19.753Z,20.17
2022-10-14T08:52:55.884Z,22.13
2022-10-14T08:55:33.784Z,22.38
2022-10-14T08:58:23.784Z,17.48
2022-10-14T09:00:52.556Z,24.23
2022-10-14T09:03:33.317Z,21.42
2022-10-14T09:06:10.477Z,18.20
2022-10-14T09:08:42.528Z,18.90
2022-10-14T09:11:17.792Z,22.25
2022-10-14T09:13:50.560Z,24.05
2022-10-14T09:16:24.017Z,20.52
2022-10-14T09:19:05.882Z,24.42
2022-10-14T09:21:34.249Z,23.40
2022-10-14T09:24:24.252Z,17.80
2022-10-14T09:26:54.545Z,18.45
2022-10-14T09:29:29.140Z,18.02
2022-10-14T09:32:18.028Z,18.52
2022-10-14T09:34:48.352Z,23.63
2022-10-14T09:37:27.648Z,19.00
2022-10-14T09:40:00.483Z,16.93
2022-10-14T09:43:07.422Z,19.75
2022-10-14T09:45:55.563Z,24.55
2022-10-14T09:48:52.439Z,17.88
2022-10-14T09:51:19.237Z,24.17
2022-10-14T09:53:50.090Z,17.63
2022-10-14T09:56:39.013Z,19.95
2022-10-14T09:59:20.374Z,18.63
2022-10-14T10:02:02.766Z,23.40
2022-10-14T10:04:37.371Z,21.30
2022-10-14T10:07:07.794Z,20.23
2022-10-14T10:09:34.958Z,25.05
2022-10-14T10:12:28.952Z,19.77
2022-10-14T10:15:06.656Z,20.58
2022-10-14T10:17:38.122Z,23.63
2022-10-14T10:20:19.139Z,21.23
2022-10-14T10:22:46.724Z,18.65
2022-10-14T10:25:13.973Z,22.30
2022-10-14T10:27:46.585Z,19.70
2022-10-14T10:30:22.733Z,20.08
2022-10-14T10:33:04.713Z,17.88
2022-10-14T10:35:34.311Z,22.98
2022-10-14T10:38:10.072Z,28.10
2022-10-14T10:40:48.921Z,25.40
2022-10-14T10:43:25.665Z,25.23
2022-10-14T10:45:52.507Z,20.63
2022-10-14T10:48:30.227Z,19.17
2022-10-14T10:50:59.837Z,21.55
2022-10-14T10:53:45.805Z,28.85
2022-10-14T10:56:20.013Z,25.00
2022-10-14T11:02:23.552Z,25.65
2022-10-14T11:05:02.011Z,23.23
2022-10-14T11:08:11.656Z,23.98
2022-10-14T11:11:03.393Z,23.63
2022-10-14T11:13:46.622Z,21.95
2022-10-14T11:16:19.716Z,27.48
2022-10-14T11:19:10.892Z,30.25
2022-10-14T11:21:48.955Z,27.63
2022-10-14T11:24:34.826Z,24.13
2022-10-14T11:27:35.134Z,26.05
2022-10-14T11:30:14.197Z,22.33
2022-10-14T11:33:03.515Z,24.55
2022-10-14T11:35:36.277Z,20.80
2022-10-14T11:41:11.414Z,26.45
2022-10-14T11:44:13.233Z,21.88
2022-10-14T11:46:46.542Z,25.27
2022-10-14T11:49:22.573Z,28.60
2022-10-14T11:51:52.773Z,24.85
2022-10-14T11:54:28.892Z,23.73
2022-10-14T11:57:01.102Z,24.02
2022-10-14T11:59:27.935Z,23.52
2022-10-14T12:02:01.340Z,21.05
2022-10-14T12:04:38.686Z,22.65
2022-10-14T12:07:20.102Z,21.23
2022-10-14T12:10:03.045Z,23.02
2022-10-14T12:12:32.539Z,25.00
2022-10-14T12:15:07.478Z,21.77
2022-10-14T12:17:46.341Z,23.45
2022-10-14T12:20:26.746Z,19.92
2022-10-14T12:22:56.466Z,23.98
2022-10-14T12:25:27.344Z,22.65
2022-10-14T12:27:55.478Z,20.77
2022-10-14T12:30:37.950Z,20.85
2022-10-14T12:33:07.986Z,21.65
2022-10-14T12:35:59.451Z,20.63
2022-10-14T12:38:31.323Z,18.80
2022-10-14T12:41:34.079Z,19.75
2022-10-14T12:44:07.728Z,18.27
2022-10-14T12:46:45.040Z,20.90
2022-10-14T12:49:33.092Z,22.30
2022-10-14T12:52:04.284Z,20.92
2022-10-14T12:54:33.015Z,20.50
2022-10-14T12:57:07.019Z,21.25
2022-10-14T12:59:38.083Z,21.75
2022-10-14T13:02:20.217Z,18.95
2022-10-14T13:04:50.113Z,18.13
2022-10-14T13:07:38.838Z,19.25
2022-10-14T13:10:27.428Z,18.17
2022-10-14T13:12:54.977Z,17.45
2022-10-14T13:15:50.694Z,16.98
2022-10-14T13:18:44.063Z,17.70
2022-10-14T13:21:33.123Z,19.42
2022-10-14T13:24:07.796Z,18.05
2022-10-14T13:26:53.132Z,16.08
2022-10-14T13:29:20.125Z,18.20
2022-10-14T13:32:12.369Z,18.65
2022-10-14T13:35:04.413Z,18.63
2022-10-14T13:37:35.572Z,18.15
2022-10-14T13:40:29.089Z,18.02
2022-10-14T13:43:01.957Z,17.02
2022-10-14T13:45:37.026Z,17.25
2022-10-14T13:48:25.041Z,20.55
2022-10-14T13:51:17.237Z,17.52
2022-10-14T13:53:57.444Z,16.40
2022-10-14T13:56:27.831Z,19.40
2022-10-14T13:58:54.944Z,20.42
2022-10-14T14:01:27.566Z,21.70
2022-10-14T14:03:57.590Z,18.73
2022-10-14T14:06:32.434Z,21.83
2022-10-14T14:09:07.946Z,21.92
2022-10-14T14:11:38.247Z,19.55
2022-10-14T14:14:19.848Z,23.88
2022-10-14T14:16:55.074Z,20.75
2022-10-14T14:19:33.700Z,19.42
2022-10-14T14:22:06.596Z,21.73
2022-10-14T14:24:34.315Z,18.48
2022-10-14T14:27:01.594Z,19.55
2022-10-14T14:29:32.771Z,23.40
2022-10-14T14:32:08.868Z,19.75
2022-10-14T14:34:38.680Z,22.33
2022-10-14T14:37:43.512Z,22.92
2022-10-14T14:40:08.215Z,20.55
2022-10-14T14:42:40.644Z,22.75
2022-10-14T14:45:14.302Z,23.35
2022-10-14T14:47:42.279Z,21.60
2022-10-14T14:50:31.456Z,20.33
2022-10-14T14:53:10.287Z,23.23
2022-10-14T14:55:45.692Z,22.10
2022-10-14T14:58:24.575Z,22.90
2022-10-14T15:00:52.840Z,22.23
2022-10-14T15:03:19.713Z,21.10
2022-10-14T15:06:06.101Z,21.92
2022-10-14T15:08:37.829Z,20.33
2022-10-14T15:11:05.112Z,19.90
2022-10-14T15:13:41.146Z,22.52
2022-10-14T15:16:08.349Z,23.35
2022-10-14T15:18:37.648Z,23.67
2022-10-14T15:23:42.276Z,17.50
2022-10-14T15:26:31.932Z,20.23
2022-10-14T15:32:13.205Z,20.88
2022-10-14T15:34:40.628Z,22.00
2022-10-14T15:37:15.229Z,20.95
2022-10-14T15:39:42.010Z,22.95
2022-10-14T15:42:12.708Z,23.30
2022-10-14T15:44:39.522Z,20.45
2022-10-14T15:47:21.042Z,20.80
2022-10-14T15:49:47.954Z,22.90
2022-10-14T15:52:16.545Z,21.88
2022-10-14T15:54:45.751Z,17.58
2022-10-14T15:57:15.629Z,17.98
2022-10-14T15:59:43.618Z,18.70
2022-10-14T16:02:25.182Z,19.38
2022-10-14T16:05:19.221Z,16.55
2022-10-14T16:07:39.582Z,18.48
2022-10-14T16:10:08.455Z,17.33
2022-10-14T16:12:35.617Z,17.08
2022-10-14T16:15:02.833Z,16.45
2022-10-14T16:17:29.803Z,15.52
2022-10-14T16:19:56.648Z,15.52
2022-10-14T16:22:23.543Z,15.50
2022-10-14T16:24:50.473Z,14.73
2022-10-14T16:27:17.356Z,14.15
2022-10-14T16:29:44.205Z,14.23
2022-10-14T16:32:13.498Z,14.02
2022-10-14T16:34:40.376Z,13.77
2022-10-14T16:37:09.069Z,13.88
2022-10-14T16:39:37.646Z,12.80
2022-10-14T16:42:05.244Z,15.25
2022-10-14T16:44:33.144Z,13.40
2022-10-14T16:47:19.148Z,13.15
2022-10-14T16:49:49.227Z,13.88
2022-10-14T16:52:16.833Z,12.73
2022-10-14T16:54:43.873Z,12.20
2022-10-14T16:57:11.116Z,14.10
2022-10-14T16:59:38.553Z,12.57
2022-10-14T17:02:05.463Z,11.85
2022-10-14T17:04:32.366Z,15.05
2022-10-14T17:06:59.300Z,11.75
2022-10-14T17:09:26.170Z,12.85
2022-10-14T17:11:53.025Z,15.57
2022-10-14T17:14:23.081Z,11.52
2022-10-14T17:16:52.466Z,12.23
2022-10-14T17:19:19.992Z,15.57
2022-10-14T17:21:47.294Z,10.82
2022-10-14T17:24:16.928Z,17.15
2022-10-14T17:26:45.105Z,17.15
2022-10-14T17:29:12.103Z,17.45
2022-10-14T17:31:38.965Z,13.30
2022-10-14T17:34:05.867Z,17.60
2022-10-14T17:36:32.768Z,14.13
2022-10-14T17:39:00.148Z,16.65
2022-10-14T17:41:28.763Z,14.77
2022-10-14T17:43:57.239Z,13.82
2022-10-14T17:46:25.724Z,14.77
2022-10-14T17:49:06.460Z,14.87
2022-10-14T17:51:33.332Z,13.63
2022-10-14T17:54:05.542Z,16.73
2022-10-14T17:56:34.373Z,16.75
2022-10-14T17:59:07.168Z,15.73
2022-10-14T18:04:22.031Z,15.30
2022-10-14T18:06:48.944Z,15.90
2022-10-14T18:09:15.856Z,15.48
2022-10-14T18:14:31.967Z,14.93
2022-10-14T18:16:59.330Z,17.75
2022-10-14T18:19:26.418Z,19.02
2022-10-14T18:21:53.217Z,18.30
2022-10-14T18:24:20.532Z,18.67
2022-10-14T18:26:50.150Z,17.88
2022-10-14T18:29:17.144Z,19.15
2022-10-14T18:31:44.168Z,19.77
2022-10-14T18:34:11.820Z,19.75
2022-10-14T18:36:38.877Z,20.27
2022-10-14T18:39:08.675Z,20.35
2022-10-14T18:41:38.888Z,20.65
2022-10-14T18:44:06.702Z,20.63
2022-10-14T18:46:35.750Z,22.02
2022-10-14T18:49:03.776Z,22.65
2022-10-14T18:51:34.749Z,22.27
2022-10-14T18:54:07.631Z,22.17
2022-10-14T18:56:38.725Z,21.98
2022-10-14T18:59:09.213Z,22.23
2022-10-14T19:01:37.326Z,22.00
2022-10-14T19:04:05.943Z,24.63
2022-10-14T19:06:33.492Z,23.73
2022-10-14T19:09:04.360Z,21.02
2022-10-14T19:11:33.138Z,22.60
2022-10-14T19:14:03.595Z,24.42
2022-10-14T19:16:32.776Z,22.83
2022-10-14T19:19:01.943Z,21.80
2022-10-14T19:21:32.122Z,23.65
2022-10-14T19:24:00.337Z,24.75
2022-10-14T19:26:31.197Z,24.48
2022-10-14T19:28:59.606Z,26.90
2022-10-14T19:31:29.882Z,25.35
2022-10-14T19:33:57.624Z,24.58
2022-10-14T19:36:25.692Z,25.77
2022-10-14T19:38:57.707Z,24.15
2022-10-14T19:41:26.322Z,24.38
2022-10-14T19:43:53.734Z,16.30
2022-10-14T19:46:27.640Z,23.90
2022-10-14T19:49:05.100Z,23.20
2022-10-14T19:51:33.762Z,23.77
2022-10-14T19:54:00.787Z,24.95
2022-10-14T19:56:28.143Z,24.90
2022-10-14T19:58:57.259Z,21.95
2022-10-14T20:01:26.741Z,22.92
2022-10-14T20:03:54.185Z,25.77
2022-10-14T20:06:22.566Z,25.45
2022-10-14T20:08:50.090Z,26.98
2022-10-14T20:11:19.683Z,13.93
2022-10-14T20:13:46.982Z,26.42
2022-10-14T20:16:14.436Z,18.70
2022-10-14T20:18:42.233Z,21.38
2022-10-14T20:21:11.892Z,29.00
2022-10-14T20:23:39.289Z,15.05
2022-10-14T20:26:08.963Z,17.92
2022-10-14T20:28:37.074Z,17.40
2022-10-14T20:31:07.436Z,27.63
2022-10-14T20:33:34.805Z,13.75
2022-10-14T20:36:07.412Z,29.45
2022-10-14T20:38:34.572Z,33.13
2022-10-14T20:41:13.156Z,19.70
2022-10-14T20:43:41.207Z,23.13
2022-10-14T20:46:08.589Z,16.00
2022-10-14T20:48:37.318Z,21.52
2022-10-14T20:51:10.295Z,15.48
2022-10-14T20:53:37.383Z,14.48
2022-10-14T20:56:07.311Z,16.15
2022-10-14T20:58:34.275Z,15.68
2022-10-14T21:01:08.823Z,32.55
2022-10-14T21:03:35.882Z,34.58
2022-10-14T21:06:05.414Z,33.97
2022-10-14T21:08:32.794Z,33.97
2022-10-14T21:11:01.227Z,52.60
2022-10-14T21:13:28.876Z,25.02
2022-10-14T21:15:56.457Z,35.58
2022-10-14T21:18:24.006Z,23.60
2022-10-14T21:23:19.847Z,44.08
2022-10-14T21:25:55.943Z,28.17
2022-10-14T21:28:23.068Z,50.38
2022-10-14T21:30:49.977Z,47.03
2022-10-14T21:33:16.783Z,41.80
2022-10-14T21:35:43.789Z,40.22
2022-10-14T21:38:10.581Z,42.28
2022-10-14T21:40:37.393Z,38.80
2022-10-14T21:43:04.244Z,47.95
2022-10-14T21:45:31.099Z,34.67
2022-10-14T21:50:30.347Z,18.15
2022-10-14T21:52:57.232Z,42.78
2022-10-14T21:55:24.041Z,41.33
2022-10-14T21:57:51.482Z,37.13
2022-10-14T22:00:18.499Z,37.58
2022-10-14T22:02:45.390Z,33.58
2022-10-14T22:05:12.348Z,44.25
2022-10-14T22:07:39.122Z,22.27
2022-10-14T22:10:26.362Z,35.60
2022-10-14T22:12:56.162Z,25.45
2022-10-14T22:15:23.353Z,37.00
2022-10-14T22:17:50.899Z,36.58
2022-10-14T22:20:18.613Z,33.30
2022-10-14T22:22:45.775Z,24.08
2022-10-14T22:25:13.835Z,28.08
2022-10-14T22:27:40.588Z,36.95
2022-10-14T22:30:08.367Z,32.17
2022-10-14T22:32:35.213Z,29.83
2022-10-14T22:35:02.066Z,39.92
2022-10-14T22:37:31.141Z,42.13
2022-10-14T22:39:57.985Z,38.03
2022-10-14T22:42:24.859Z,31.83
2022-10-14T22:44:51.752Z,28.70
2022-10-14T22:47:18.478Z,37.92
2022-10-14T22:49:45.287Z,35.80
2022-10-14T22:52:12.137Z,40.80
2022-10-14T22:54:38.949Z,41.75
2022-10-14T22:57:05.728Z,31.25
2022-10-14T22:59:32.540Z,43.20
2022-10-14T23:01:59.390Z,29.83
2022-10-14T23:04:26.241Z,43.08
2022-10-14T23:06:53.100Z,36.92
2022-10-14T23:09:19.904Z,39.33
2022-10-14T23:11:46.692Z,38.72
2022-10-14T23:14:13.537Z,20.10
2022-10-14T23:16:40.394Z,36.08
2022-10-14T23:19:07.311Z,35.03
2022-10-14T23:21:36.519Z,46.00
2022-10-14T23:24:07.766Z,21.63
2022-10-14T23:26:35.801Z,37.55
2022-10-14T23:29:05.459Z,31.15
2022-10-14T23:31:34.104Z,37.72
2022-10-14T23:34:04.021Z,40.13
2022-10-14T23:36:31.107Z,40.50
2022-10-14T23:38:58.920Z,35.65
2022-10-14T23:41:26.313Z,35.80
2022-10-14T23:43:53.761Z,38.88
2022-10-14T23:46:20.959Z,24.00
2022-10-14T23:48:55.789Z,34.47
2022-10-14T23:51:34.346Z,40.53
2022-10-14T23:54:01.166Z,41.38
2022-10-14T23:56:28.024Z,53.13
2022-10-14T23:58:54.816Z,51.40
